map of BOS home
Great Circle Mapper logo
BOS - Airport
Location
City:  Boston, Massachusetts, United States
Name:General Edward Lawrence Logan International Airport
ICAO / IATA:KBOS / BOS
FAA:BOS

Details
Type:Airport (Part 139 Class I)
Use:Public/Civil, International (customs landing rights)
Latitude:4221'47"N (42.362972)
Longitude:7100'23"W (-71.006416)
Datum:WGS 1984
Elevation:20 ft (6 m)
Runways:6
Longest:10083 × 150 ft (3073 × 45.5 m), paved

Time
Time Zone:UTC-5 (DST-4)
Local Time:

Weather
METAR:KBOS 161854Z 33012G24KT 10SM FEW050 06/M09 A3036 RMK AO2 SLP279 T00611089
TAF:KBOS 161736Z 1618/1724 33014KT P6SM FEW050
FM162300 36009KT P6SM SKC
FM171000 04010KT P6SM FEW250
FM171800 08016KT P6SM SCT250

Related Locations
Nearby:
Farthest:MGV: 11763 mi / 18931 km
Margaret River, WA, AU

Find:

   beyond  
but within

Other Information
Maps:
Delays:
NOTAMs:
Links:
Sources:

  
flag of United States
flag of Massachusetts
flag of Boston
  

Airport Diagram

Airport diagram for BOS

Airport diagram PDF

Sectional Chart

Flight Planning
at skyvector.com

Satellite Image

Google Maps Satellite View

 

Copyright © 2004-2014 Karl L. Swartz. All rights reserved.
The Great Circle Mapper name and logo are trademarks of the Great Circle Mapper.
All other trademarks mentioned herein belong to their respective owners.
Please see credits for attibutions and further copyright information.

  Follow gcmap on Facebook Follow gcmap on Twitter

hCard Microformat

Geo Microformat